createdAt,value
2022-12-15T00:00:56.771Z,-9.07
2022-12-15T00:03:42.191Z,-9.12
2022-12-15T00:06:28.000Z,-9.15
2022-12-15T00:09:14.565Z,-9.25
2022-12-15T00:12:00.937Z,-9.32
2022-12-15T00:14:46.513Z,-9.41
2022-12-15T00:17:31.933Z,-9.66
2022-12-15T00:20:17.206Z,-9.68
2022-12-15T00:23:02.656Z,-9.68
2022-12-15T00:25:47.821Z,-9.68
2022-12-15T00:28:33.093Z,-9.70
2022-12-15T00:31:18.481Z,-9.69
2022-12-15T00:34:04.228Z,-9.75
2022-12-15T00:36:49.843Z,-9.82
2022-12-15T00:39:16.813Z,-9.89
2022-12-15T00:41:43.570Z,-10.02
2022-12-15T00:44:13.375Z,-10.06
2022-12-15T00:46:54.684Z,-10.09
2022-12-15T00:49:44.040Z,-10.10
2022-12-15T00:52:29.638Z,-10.18
2022-12-15T00:55:14.993Z,-10.17
2022-12-15T00:58:00.353Z,-10.23
2022-12-15T01:00:45.665Z,-10.25
2022-12-15T01:03:36.225Z,-10.36
2022-12-15T01:06:25.628Z,-10.37
2022-12-15T01:09:11.209Z,-10.38
2022-12-15T01:11:56.687Z,-10.37
2022-12-15T01:14:42.214Z,-10.34
2022-12-15T01:17:27.578Z,-10.34
2022-12-15T01:20:12.881Z,-10.53
2022-12-15T01:22:39.950Z,-10.75
2022-12-15T01:25:07.179Z,-10.76
2022-12-15T01:27:34.190Z,-10.87
2022-12-15T01:30:00.880Z,-10.96
2022-12-15T01:32:27.858Z,-11.10
2022-12-15T01:34:54.788Z,-11.18
2022-12-15T01:37:21.418Z,-11.20
2022-12-15T01:40:06.839Z,-11.17
2022-12-15T01:42:33.848Z,-11.15
2022-12-15T01:45:38.991Z,-11.00
2022-12-15T01:48:06.874Z,-10.98
2022-12-15T01:50:34.989Z,-10.98
2022-12-15T01:53:01.778Z,-10.96
2022-12-15T01:55:28.547Z,-10.87
2022-12-15T01:57:55.855Z,-10.90
2022-12-15T02:00:22.578Z,-10.84
2022-12-15T02:02:49.432Z,-10.87
2022-12-15T02:05:16.216Z,-10.86
2022-12-15T02:07:43.501Z,-10.92
2022-12-15T02:10:10.499Z,-11.04
2022-12-15T02:12:49.384Z,-11.13
2022-12-15T02:15:22.430Z,-11.20
2022-12-15T02:18:08.114Z,-11.23
2022-12-15T02:20:50.341Z,-11.29
2022-12-15T02:23:29.742Z,-11.34
2022-12-15T02:25:56.537Z,-11.39
2022-12-15T02:28:28.918Z,-11.41
2022-12-15T02:31:21.359Z,-11.41
2022-12-15T02:33:53.268Z,-11.44
2022-12-15T02:36:25.968Z,-11.48
2022-12-15T02:38:53.011Z,-11.51
2022-12-15T02:41:51.629Z,-11.46
2022-12-15T02:44:20.010Z,-11.48
2022-12-15T02:46:49.826Z,-11.53
2022-12-15T02:49:16.589Z,-11.62
2022-12-15T02:52:02.080Z,-11.67
2022-12-15T02:54:37.180Z,-11.73
2022-12-15T02:57:06.175Z,-11.82
2022-12-15T02:59:32.860Z,-11.83
2022-12-15T03:02:09.089Z,-11.80
2022-12-15T03:04:36.038Z,-11.78
2022-12-15T03:07:04.308Z,-11.77
2022-12-15T03:09:31.254Z,-11.79
2022-12-15T03:12:01.050Z,-11.83
2022-12-15T03:14:27.739Z,-11.79
2022-12-15T03:16:54.480Z,-11.78
2022-12-15T03:19:21.144Z,-11.76
2022-12-15T03:21:47.752Z,-11.81
2022-12-15T03:24:14.462Z,-11.83
2022-12-15T03:26:41.824Z,-11.87
2022-12-15T03:29:08.647Z,-11.87
2022-12-15T03:31:35.444Z,-11.90
2022-12-15T03:34:02.338Z,-11.97
2022-12-15T03:36:29.290Z,-11.98
2022-12-15T03:38:55.935Z,-11.88
2022-12-15T03:41:22.636Z,-11.89
2022-12-15T03:43:49.705Z,-11.96
2022-12-15T03:46:16.816Z,-11.97
2022-12-15T03:48:45.951Z,-12.03
2022-12-15T03:51:12.755Z,-12.04
2022-12-15T03:53:39.488Z,-12.03
2022-12-15T03:56:06.394Z,-12.04
2022-12-15T03:58:33.135Z,-12.03
2022-12-15T04:00:59.813Z,-12.05
2022-12-15T04:03:26.651Z,-12.09
2022-12-15T04:05:53.335Z,-12.13
2022-12-15T04:08:27.003Z,-12.17
2022-12-15T04:10:53.836Z,-12.17
2022-12-15T04:13:20.578Z,-12.21
2022-12-15T04:15:47.188Z,-12.18
2022-12-15T04:18:13.793Z,-12.22
2022-12-15T04:20:40.793Z,-12.32
2022-12-15T04:23:08.154Z,-12.38
2022-12-15T04:25:53.956Z,-12.38
2022-12-15T04:28:39.403Z,-12.37
2022-12-15T04:31:31.876Z,-12.33
2022-12-15T04:34:18.553Z,-12.28
2022-12-15T04:37:04.472Z,-12.34
2022-12-15T04:39:49.918Z,-12.40
2022-12-15T04:42:35.391Z,-12.48
2022-12-15T04:45:21.374Z,-12.54
2022-12-15T04:48:06.670Z,-12.54
2022-12-15T04:50:52.182Z,-12.48
2022-12-15T04:53:37.647Z,-12.47
2022-12-15T04:56:22.865Z,-12.43
2022-12-15T04:59:08.162Z,-12.41
2022-12-15T05:01:53.662Z,-12.45
2022-12-15T05:04:39.074Z,-12.49
2022-12-15T05:07:24.651Z,-12.54
2022-12-15T05:10:14.878Z,-12.63
2022-12-15T05:13:00.676Z,-12.61
2022-12-15T05:15:46.144Z,-12.59
2022-12-15T05:18:31.363Z,-12.61
2022-12-15T05:21:16.661Z,-12.60
2022-12-15T05:24:02.013Z,-12.64
2022-12-15T05:26:52.338Z,-12.67
2022-12-15T05:29:38.420Z,-12.64
2022-12-15T05:32:05.217Z,-12.62
2022-12-15T05:34:33.864Z,-12.63
2022-12-15T05:37:01.060Z,-12.65
2022-12-15T05:39:28.073Z,-12.64
2022-12-15T05:41:55.155Z,-12.67
2022-12-15T05:44:21.921Z,-12.65
2022-12-15T05:46:48.724Z,-12.73
2022-12-15T05:49:15.931Z,-12.80
2022-12-15T05:51:43.069Z,-12.78
2022-12-15T05:54:11.055Z,-12.79
2022-12-15T05:56:37.922Z,-12.78
2022-12-15T05:59:04.655Z,-12.76
2022-12-15T06:01:31.653Z,-12.79
2022-12-15T06:03:58.672Z,-12.79
2022-12-15T06:06:25.333Z,-12.77
2022-12-15T06:08:52.015Z,-12.70
2022-12-15T06:11:19.445Z,-12.70
2022-12-15T06:13:46.700Z,-12.72
2022-12-15T06:16:14.477Z,-12.74
2022-12-15T06:18:42.708Z,-12.74
2022-12-15T06:21:13.725Z,-12.78
2022-12-15T06:23:40.560Z,-12.83
2022-12-15T06:26:26.158Z,-12.90
2022-12-15T06:28:52.722Z,-12.97
2022-12-15T06:31:22.780Z,-12.92
2022-12-15T06:33:51.637Z,-12.92
2022-12-15T06:36:20.155Z,-12.91
2022-12-15T06:38:49.817Z,-12.84
2022-12-15T06:41:17.936Z,-12.81
2022-12-15T06:43:49.220Z,-12.85
2022-12-15T06:46:16.001Z,-12.88
2022-12-15T06:48:45.162Z,-12.91
2022-12-15T06:51:16.808Z,-12.96
2022-12-15T06:53:49.225Z,-12.98
2022-12-15T06:56:20.425Z,-13.00
2022-12-15T06:58:47.656Z,-13.00
2022-12-15T07:01:15.684Z,-13.01
2022-12-15T07:03:42.658Z,-12.99
2022-12-15T07:06:10.479Z,-12.99
2022-12-15T07:08:41.398Z,-13.01
2022-12-15T07:11:10.225Z,-13.02
2022-12-15T07:13:36.955Z,-13.08
2022-12-15T07:16:05.135Z,-13.06
2022-12-15T07:18:31.819Z,-12.98
2022-12-15T07:21:05.559Z,-12.95
2022-12-15T07:23:53.632Z,-12.99
2022-12-15T07:26:19.179Z,-12.99
2022-12-15T07:28:45.910Z,-12.96
2022-12-15T07:31:12.946Z,-12.88
2022-12-15T07:33:39.771Z,-12.86
2022-12-15T07:36:08.535Z,-12.86
2022-12-15T07:38:35.631Z,-12.84
2022-12-15T07:41:03.401Z,-12.86
2022-12-15T07:43:31.584Z,-12.87
2022-12-15T07:45:58.978Z,-12.82
2022-12-15T07:48:27.427Z,-12.84
2022-12-15T07:51:04.948Z,-12.71
2022-12-15T07:53:34.979Z,-12.67
2022-12-15T07:56:10.150Z,-12.69
2022-12-15T07:58:37.630Z,-12.72
2022-12-15T08:01:05.868Z,-12.69
2022-12-15T08:03:33.519Z,-12.61
2022-12-15T08:06:07.147Z,-12.51
2022-12-15T08:08:34.761Z,-12.43
2022-12-15T08:11:06.180Z,-12.39
2022-12-15T08:16:21.217Z,-12.19
2022-12-15T08:18:48.912Z,-12.10
2022-12-15T08:21:15.861Z,-12.05
2022-12-15T08:23:42.709Z,-11.97
2022-12-15T08:26:10.638Z,-11.83
2022-12-15T08:28:37.893Z,-11.69
2022-12-15T08:31:07.493Z,-11.22
2022-12-15T08:33:35.018Z,-10.61
2022-12-15T08:36:04.915Z,-9.77
2022-12-15T08:38:35.830Z,-8.82
2022-12-15T08:41:09.907Z,-7.99
2022-12-15T08:43:41.183Z,-7.24
2022-12-15T08:46:14.032Z,-6.34
2022-12-15T08:48:40.935Z,-5.72
2022-12-15T08:51:08.976Z,-5.19
2022-12-15T08:53:35.835Z,-4.82
2022-12-15T08:56:09.200Z,-4.53
2022-12-15T08:58:36.399Z,-4.31
2022-12-15T09:01:04.675Z,-4.18
2022-12-15T09:03:31.817Z,-4.39
2022-12-15T09:06:02.015Z,-4.04
2022-12-15T09:08:31.241Z,-3.56
2022-12-15T09:10:58.597Z,-2.92
2022-12-15T09:13:25.537Z,-2.34
2022-12-15T09:16:09.483Z,-1.99
2022-12-15T09:18:36.980Z,-1.38
2022-12-15T09:21:05.304Z,-0.88
2022-12-15T09:23:32.481Z,-0.37
2022-12-15T09:26:00.409Z,-0.06
2022-12-15T09:28:27.214Z,0.28
2022-12-15T09:30:53.920Z,0.19
2022-12-15T09:33:21.520Z,0.33
2022-12-15T09:35:51.585Z,0.69
2022-12-15T09:38:18.371Z,1.27
2022-12-15T09:40:45.055Z,1.51
2022-12-15T09:43:33.883Z,1.03
2022-12-15T09:46:07.277Z,1.38
2022-12-15T09:48:39.707Z,2.31
2022-12-15T09:51:07.349Z,3.17
2022-12-15T09:54:02.272Z,3.89
2022-12-15T09:56:21.553Z,3.25
2022-12-15T09:58:54.315Z,1.45
2022-12-15T10:01:44.729Z,0.84
2022-12-15T10:04:15.670Z,0.35
2022-12-15T10:06:45.500Z,-0.23
2022-12-15T10:09:21.533Z,-1.04
2022-12-15T10:12:01.218Z,-1.80
2022-12-15T10:14:27.739Z,-2.40
2022-12-15T10:16:57.309Z,-2.81
2022-12-15T10:19:29.979Z,-3.05
2022-12-15T10:21:57.280Z,-2.94
2022-12-15T10:25:00.330Z,-2.86
2022-12-15T10:27:13.751Z,-2.34
2022-12-15T10:29:40.632Z,-2.43
2022-12-15T10:32:16.567Z,-2.79
2022-12-15T10:34:43.698Z,-3.38
2022-12-15T10:37:20.382Z,-3.76
2022-12-15T10:39:50.282Z,-4.13
2022-12-15T10:42:24.947Z,-4.16
2022-12-15T10:44:52.675Z,-4.11
2022-12-15T10:47:28.614Z,-3.94
2022-12-15T10:49:55.862Z,-3.75
2022-12-15T10:52:27.674Z,-3.78
2022-12-15T10:54:55.065Z,-4.02
2022-12-15T10:57:21.658Z,-4.36
2022-12-15T10:59:50.342Z,-4.54
2022-12-15T11:02:34.538Z,-4.59
2022-12-15T11:05:16.738Z,-4.50
2022-12-15T11:08:10.755Z,-4.26
2022-12-15T11:10:57.755Z,-4.25
2022-12-15T11:13:26.346Z,-4.34
2022-12-15T11:15:56.672Z,-4.35
2022-12-15T11:18:29.365Z,-4.23
2022-12-15T11:21:01.902Z,-3.99
2022-12-15T11:23:31.268Z,-3.69
2022-12-15T11:26:06.769Z,-3.31
2022-12-15T11:28:45.047Z,-3.23
2022-12-15T11:31:17.132Z,-3.34
2022-12-15T11:33:43.658Z,-3.50
2022-12-15T11:36:19.407Z,-3.57
2022-12-15T11:38:50.798Z,-3.76
2022-12-15T11:41:25.443Z,-3.89
2022-12-15T11:43:55.247Z,-3.92
2022-12-15T11:46:27.268Z,-3.98
2022-12-15T11:49:09.416Z,-3.93
2022-12-15T11:51:38.979Z,-3.78
2022-12-15T11:54:05.432Z,-3.71
2022-12-15T11:56:38.111Z,-3.59
2022-12-15T11:59:27.269Z,-3.75
2022-12-15T12:02:12.777Z,-3.79
2022-12-15T12:04:58.016Z,-3.70
2022-12-15T12:07:51.061Z,-3.34
2022-12-15T12:10:31.664Z,-2.54
2022-12-15T12:13:16.983Z,-2.17
2022-12-15T12:15:43.434Z,-2.19
2022-12-15T12:18:25.747Z,-2.35
2022-12-15T12:20:53.647Z,-2.63
2022-12-15T12:23:24.208Z,-2.84
2022-12-15T12:25:55.832Z,-3.05
2022-12-15T12:28:28.120Z,-3.23
2022-12-15T12:30:54.638Z,-3.27
2022-12-15T12:33:50.610Z,-3.40
2022-12-15T12:36:17.134Z,-3.43
2022-12-15T12:38:52.184Z,-3.43
2022-12-15T12:41:25.735Z,-3.45
2022-12-15T12:43:58.901Z,-3.39
2022-12-15T12:46:29.803Z,-3.21
2022-12-15T12:49:02.565Z,-2.83
2022-12-15T12:51:30.123Z,-2.22
2022-12-15T12:53:56.965Z,-0.92
2022-12-15T12:56:30.413Z,0.76
2022-12-15T12:58:57.001Z,1.91
2022-12-15T13:01:28.189Z,2.06
2022-12-15T13:04:14.305Z,1.12
2022-12-15T13:06:40.798Z,-0.07
2022-12-15T13:09:16.916Z,-0.89
2022-12-15T13:11:51.133Z,-1.31
2022-12-15T13:14:40.975Z,-1.64
2022-12-15T13:17:26.576Z,-1.96
2022-12-15T13:20:06.660Z,-2.20
2022-12-15T13:22:33.145Z,-2.41
2022-12-15T13:24:59.813Z,-2.56
2022-12-15T13:27:35.097Z,-2.57
2022-12-15T13:30:07.909Z,-2.48
2022-12-15T13:32:38.219Z,-2.42
2022-12-15T13:35:13.883Z,-2.45
2022-12-15T13:37:56.784Z,-2.58
2022-12-15T13:40:23.788Z,-2.82
2022-12-15T13:42:58.361Z,-3.02
2022-12-15T13:45:34.437Z,-3.19
2022-12-15T13:48:01.035Z,-3.27
2022-12-15T13:50:32.300Z,-3.15
2022-12-15T13:53:18.272Z,-3.17
2022-12-15T13:55:53.103Z,-3.27
2022-12-15T13:58:19.597Z,-3.36
2022-12-15T14:00:53.782Z,-3.24
2022-12-15T14:03:20.527Z,-3.24
2022-12-15T14:05:51.279Z,-3.31
2022-12-15T14:08:18.039Z,-3.46
2022-12-15T14:10:45.915Z,-3.63
2022-12-15T14:13:22.922Z,-3.84
2022-12-15T14:16:03.184Z,-4.05
2022-12-15T14:18:33.051Z,-4.19
2022-12-15T14:20:59.865Z,-4.24
2022-12-15T14:23:27.766Z,-4.29
2022-12-15T14:25:55.294Z,-4.42
2022-12-15T14:28:30.333Z,-4.51
2022-12-15T14:30:57.808Z,-4.62
2022-12-15T14:33:28.239Z,-4.72
2022-12-15T14:35:56.471Z,-4.80
2022-12-15T14:38:33.073Z,-4.83
2022-12-15T14:41:01.385Z,-4.89
2022-12-15T14:43:30.271Z,-4.95
2022-12-15T14:45:57.861Z,-5.06
2022-12-15T14:48:45.075Z,-5.15
2022-12-15T14:51:12.340Z,-5.28
2022-12-15T14:53:39.422Z,-5.37
2022-12-15T14:56:13.500Z,-5.43
2022-12-15T14:58:40.931Z,-5.38
2022-12-15T15:01:26.606Z,-5.35
2022-12-15T15:03:56.789Z,-5.43
2022-12-15T15:06:23.629Z,-5.51
2022-12-15T15:08:50.797Z,-5.57
2022-12-15T15:11:23.589Z,-5.65
2022-12-15T15:13:52.840Z,-5.80
2022-12-15T15:16:22.892Z,-5.90
2022-12-15T15:18:50.197Z,-5.97
2022-12-15T15:21:26.857Z,-6.00
2022-12-15T15:24:00.407Z,-6.11
2022-12-15T15:26:27.225Z,-6.22
2022-12-15T15:28:54.170Z,-6.23
2022-12-15T15:31:28.343Z,-6.31
2022-12-15T15:33:57.155Z,-6.46
2022-12-15T15:36:24.856Z,-6.46
2022-12-15T15:38:52.255Z,-6.41
2022-12-15T15:41:20.060Z,-6.37
2022-12-15T15:43:46.937Z,-6.47
2022-12-15T15:46:15.530Z,-6.53
2022-12-15T15:48:44.897Z,-6.60
2022-12-15T15:51:12.250Z,-6.60
2022-12-15T15:53:38.995Z,-6.61
2022-12-15T15:56:09.051Z,-6.65
2022-12-15T15:58:36.199Z,-6.77
2022-12-15T16:01:06.737Z,-6.81
2022-12-15T16:03:36.684Z,-6.89
2022-12-15T16:06:03.661Z,-6.96
2022-12-15T16:08:36.647Z,-6.99
2022-12-15T16:11:03.360Z,-7.07
2022-12-15T16:13:30.017Z,-7.08
2022-12-15T16:15:56.711Z,-7.11
2022-12-15T16:18:23.502Z,-7.17
2022-12-15T16:20:50.828Z,-7.24
2022-12-15T16:23:21.694Z,-7.24
2022-12-15T16:25:50.973Z,-7.21
2022-12-15T16:28:20.892Z,-7.22
2022-12-15T16:30:48.103Z,-7.26
2022-12-15T16:33:15.002Z,-7.28
2022-12-15T16:35:42.180Z,-7.29
2022-12-15T16:38:16.516Z,-7.10
2022-12-15T16:40:43.145Z,-7.18
2022-12-15T16:43:17.102Z,-7.32
2022-12-15T16:45:48.267Z,-7.48
2022-12-15T16:48:15.209Z,-7.51
2022-12-15T16:50:44.245Z,-7.59
2022-12-15T16:53:18.403Z,-7.75
2022-12-15T16:55:45.146Z,-7.86
2022-12-15T16:58:15.019Z,-7.95
2022-12-15T17:00:41.781Z,-7.91
2022-12-15T17:03:11.532Z,-7.91
2022-12-15T17:05:38.403Z,-7.88
2022-12-15T17:08:05.807Z,-7.79
2022-12-15T17:10:32.836Z,-7.76
2022-12-15T17:13:35.625Z,-7.74
2022-12-15T17:16:05.915Z,-7.80
2022-12-15T17:18:33.433Z,-7.95
2022-12-15T17:21:04.711Z,-8.07
2022-12-15T17:23:31.885Z,-8.17
2022-12-15T17:26:22.792Z,-8.27
2022-12-15T17:28:45.502Z,-8.34
2022-12-15T17:31:21.799Z,-8.36
2022-12-15T17:33:48.581Z,-8.32
2022-12-15T17:36:16.118Z,-8.28
2022-12-15T17:38:42.763Z,-8.28
2022-12-15T17:41:28.841Z,-8.36
2022-12-15T17:44:31.164Z,-8.42
2022-12-15T17:46:45.596Z,-8.27
2022-12-15T17:49:12.174Z,-7.94
2022-12-15T17:51:38.811Z,-8.11
2022-12-15T17:54:05.503Z,-8.24
2022-12-15T17:56:32.077Z,-8.43
2022-12-15T17:58:58.894Z,-8.57
2022-12-15T18:01:26.045Z,-8.60
2022-12-15T18:03:52.972Z,-8.69
2022-12-15T18:06:19.836Z,-8.81
2022-12-15T18:08:46.624Z,-8.86
2022-12-15T18:11:16.785Z,-8.86
2022-12-15T18:13:44.273Z,-8.77
2022-12-15T18:16:11.047Z,-8.79
2022-12-15T18:18:37.944Z,-8.90
2022-12-15T18:21:08.843Z,-8.92
2022-12-15T18:23:35.994Z,-8.96
2022-12-15T18:26:03.412Z,-8.96
2022-12-15T18:28:34.071Z,-8.97
2022-12-15T18:31:07.158Z,-8.98
2022-12-15T18:33:34.405Z,-9.03
2022-12-15T18:36:01.492Z,-9.06
2022-12-15T18:38:28.848Z,-9.00
2022-12-15T18:40:57.170Z,-8.88
2022-12-15T18:43:33.774Z,-8.96
2022-12-15T18:46:00.920Z,-8.72
2022-12-15T18:48:28.673Z,-8.64
2022-12-15T18:50:56.391Z,-8.61
2022-12-15T18:53:33.722Z,-8.58
2022-12-15T18:56:01.881Z,-8.71
2022-12-15T18:58:29.350Z,-8.86
2022-12-15T19:00:56.885Z,-8.99
2022-12-15T19:03:23.749Z,-9.05
2022-12-15T19:05:51.799Z,-9.11
2022-12-15T19:08:20.394Z,-9.07
2022-12-15T19:10:47.156Z,-8.90
2022-12-15T19:13:14.158Z,-8.80
2022-12-15T19:15:40.733Z,-8.71
2022-12-15T19:18:28.381Z,-8.88
2022-12-15T19:21:13.867Z,-8.97
2022-12-15T19:23:40.499Z,-8.96
2022-12-15T19:26:08.362Z,-9.11
2022-12-15T19:28:35.050Z,-9.28
2022-12-15T19:31:01.955Z,-9.33
2022-12-15T19:33:28.859Z,-9.37
2022-12-15T19:35:57.621Z,-9.37
2022-12-15T19:38:25.398Z,-9.40
2022-12-15T19:40:54.933Z,-9.39
2022-12-15T19:43:22.123Z,-9.36
2022-12-15T19:45:49.876Z,-9.38
2022-12-15T19:48:21.571Z,-9.44
2022-12-15T19:50:52.073Z,-9.49
2022-12-15T19:53:28.950Z,-9.41
2022-12-15T19:55:56.371Z,-9.45
2022-12-15T19:58:27.892Z,-9.36
2022-12-15T20:00:56.004Z,-9.19
2022-12-15T20:03:22.863Z,-9.20
2022-12-15T20:05:50.639Z,-9.23
2022-12-15T20:08:24.129Z,-9.40
2022-12-15T20:10:51.184Z,-9.43
2022-12-15T20:13:17.939Z,-9.54
2022-12-15T20:15:44.747Z,-9.61
2022-12-15T20:18:11.920Z,-9.74
2022-12-15T20:20:39.015Z,-9.85
2022-12-15T20:23:18.390Z,-9.86
2022-12-15T20:25:45.385Z,-9.91
2022-12-15T20:28:16.775Z,-9.83
2022-12-15T20:30:43.820Z,-9.76
2022-12-15T20:33:10.696Z,-9.74
2022-12-15T20:35:37.752Z,-9.77
2022-12-15T20:38:13.651Z,-9.77
2022-12-15T20:40:40.458Z,-9.70
2022-12-15T20:43:11.718Z,-9.72
2022-12-15T20:45:38.361Z,-9.74
2022-12-15T20:48:05.442Z,-9.80
2022-12-15T20:50:32.317Z,-9.85
2022-12-15T20:52:59.170Z,-9.86
2022-12-15T20:55:26.175Z,-9.85
2022-12-15T20:57:52.915Z,-9.76
2022-12-15T21:00:19.660Z,-9.81
2022-12-15T21:02:46.804Z,-9.81
2022-12-15T21:05:18.020Z,-9.75
2022-12-15T21:07:44.655Z,-9.80
2022-12-15T21:10:12.428Z,-9.92
2022-12-15T21:12:39.104Z,-10.01
2022-12-15T21:15:16.090Z,-10.04
2022-12-15T21:17:43.172Z,-10.05
2022-12-15T21:20:10.689Z,-10.04
2022-12-15T21:22:37.365Z,-9.95
2022-12-15T21:25:04.175Z,-9.95
2022-12-15T21:27:30.932Z,-9.96
2022-12-15T21:29:58.004Z,-9.94
2022-12-15T21:32:24.859Z,-9.88
2022-12-15T21:37:38.289Z,-10.01
2022-12-15T21:40:05.167Z,-10.03
2022-12-15T21:42:31.879Z,-10.05
2022-12-15T21:44:58.879Z,-10.10
2022-12-15T21:47:52.647Z,-10.21
2022-12-15T21:50:21.752Z,-10.35
2022-12-15T21:52:48.854Z,-10.40
2022-12-15T21:55:16.507Z,-10.37
2022-12-15T21:57:43.288Z,-10.41
2022-12-15T22:00:10.986Z,-10.45
2022-12-15T22:02:37.724Z,-10.45
2022-12-15T22:05:05.144Z,-10.46
2022-12-15T22:07:31.812Z,-10.42
2022-12-15T22:09:58.707Z,-10.31
2022-12-15T22:12:26.914Z,-10.23
2022-12-15T22:14:53.657Z,-10.23
2022-12-15T22:17:20.978Z,-10.35
2022-12-15T22:19:47.982Z,-10.46
2022-12-15T22:22:14.888Z,-10.52
2022-12-15T22:24:41.782Z,-10.61
2022-12-15T22:27:34.861Z,-10.72
2022-12-15T22:30:01.882Z,-10.77
2022-12-15T22:32:30.487Z,-10.77
2022-12-15T22:34:57.347Z,-10.68
2022-12-15T22:37:24.372Z,-10.59
2022-12-15T22:39:51.232Z,-10.53
2022-12-15T22:42:18.636Z,-10.51
2022-12-15T22:44:45.429Z,-10.46
2022-12-15T22:47:12.348Z,-10.49
2022-12-15T22:49:39.153Z,-10.51
2022-12-15T22:52:19.042Z,-10.41
2022-12-15T22:54:46.445Z,-10.47
2022-12-15T22:57:20.855Z,-10.65
2022-12-15T22:59:49.968Z,-10.80
2022-12-15T23:02:17.125Z,-10.88
2022-12-15T23:04:43.787Z,-10.86
2022-12-15T23:07:10.509Z,-10.89
2022-12-15T23:09:37.391Z,-10.90
2022-12-15T23:12:04.269Z,-10.84
2022-12-15T23:14:49.614Z,-10.84
2022-12-15T23:17:16.475Z,-10.85
2022-12-15T23:19:44.165Z,-10.81
2022-12-15T23:22:11.079Z,-10.77
2022-12-15T23:24:37.996Z,-10.75
2022-12-15T23:27:04.848Z,-10.75
2022-12-15T23:29:31.704Z,-10.77
2022-12-15T23:31:58.565Z,-10.75
2022-12-15T23:34:28.559Z,-10.76
2022-12-15T23:36:55.438Z,-10.82
2022-12-15T23:39:22.096Z,-10.74
2022-12-15T23:41:48.864Z,-10.65
2022-12-15T23:44:15.781Z,-10.73
2022-12-15T23:46:42.691Z,-10.85
2022-12-15T23:49:09.663Z,-10.91
2022-12-15T23:51:36.495Z,-10.97
2022-12-15T23:54:03.435Z,-11.06
2022-12-15T23:56:32.755Z,-11.11
2022-12-15T23:58:59.732Z,-11.11
